createdAt,value
2022-10-19T00:01:07.513Z,93.20
2022-10-19T00:03:57.028Z,93.30
2022-10-19T00:06:46.892Z,93.10
2022-10-19T00:09:35.564Z,93.10
2022-10-19T00:12:23.050Z,93.20
2022-10-19T00:15:11.242Z,93.10
2022-10-19T00:17:58.845Z,93.50
2022-10-19T00:20:46.138Z,93.20
2022-10-19T00:23:33.892Z,93.30
2022-10-19T00:26:22.629Z,93.70
2022-10-19T00:29:11.904Z,93.70
2022-10-19T00:31:59.598Z,93.40
2022-10-19T00:34:46.894Z,93.40
2022-10-19T00:37:34.482Z,93.50
2022-10-19T00:40:21.835Z,93.60
2022-10-19T00:43:16.273Z,93.60
2022-10-19T00:46:03.828Z,93.60
2022-10-19T00:48:54.287Z,93.20
2022-10-19T00:51:45.313Z,93.40
2022-10-19T00:54:34.014Z,93.60
2022-10-19T00:57:22.371Z,93.60
2022-10-19T01:00:12.186Z,93.20
2022-10-19T01:03:00.005Z,93.00
2022-10-19T01:05:47.750Z,93.30
2022-10-19T01:08:35.373Z,93.80
2022-10-19T01:11:36.343Z,93.50
2022-10-19T01:14:34.715Z,93.60
2022-10-19T01:17:35.966Z,93.60
2022-10-19T01:21:27.217Z,93.60
2022-10-19T01:24:45.460Z,93.20
2022-10-19T01:28:19.553Z,93.50
2022-10-19T01:31:18.999Z,93.60
2022-10-19T01:34:11.863Z,93.30
2022-10-19T01:37:06.373Z,93.50
2022-10-19T01:40:00.283Z,93.40
2022-10-19T01:42:56.973Z,93.40
2022-10-19T01:45:51.935Z,93.50
2022-10-19T01:48:44.685Z,93.50
2022-10-19T01:51:36.129Z,93.40
2022-10-19T01:54:26.262Z,93.30
2022-10-19T01:57:20.548Z,93.40
2022-10-19T02:00:12.279Z,93.50
2022-10-19T02:03:01.939Z,93.60
2022-10-19T02:05:52.025Z,93.50
2022-10-19T02:08:45.416Z,93.70
2022-10-19T02:11:33.678Z,93.40
2022-10-19T02:14:26.936Z,93.50
2022-10-19T02:17:18.539Z,93.20
2022-10-19T02:20:07.449Z,93.10
2022-10-19T02:22:56.093Z,93.10
2022-10-19T02:25:43.655Z,93.00
2022-10-19T02:28:32.404Z,93.30
2022-10-19T02:31:19.929Z,93.00
2022-10-19T02:34:07.623Z,93.00
2022-10-19T02:36:55.486Z,93.10
2022-10-19T02:39:44.436Z,93.30
2022-10-19T02:42:39.996Z,93.30
2022-10-19T02:45:31.329Z,93.70
2022-10-19T02:48:23.801Z,93.30
2022-10-19T02:51:33.716Z,93.60
2022-10-19T02:54:21.183Z,93.30
2022-10-19T02:57:17.953Z,93.20
2022-10-19T03:00:07.661Z,93.20
2022-10-19T03:02:54.909Z,93.10
2022-10-19T03:05:42.421Z,93.40
2022-10-19T03:08:29.755Z,93.00
2022-10-19T03:11:17.261Z,92.90
2022-10-19T03:14:05.960Z,92.90
2022-10-19T03:16:53.475Z,92.60
2022-10-19T03:19:41.005Z,92.70
2022-10-19T03:22:28.620Z,92.70
2022-10-19T03:25:16.113Z,92.80
2022-10-19T03:28:03.571Z,92.80
2022-10-19T03:30:52.447Z,92.70
2022-10-19T03:33:39.998Z,92.80
2022-10-19T03:36:30.381Z,92.70
2022-10-19T03:39:18.428Z,92.50
2022-10-19T03:42:05.821Z,92.50
2022-10-19T03:44:53.317Z,92.70
2022-10-19T03:47:41.957Z,92.90
2022-10-19T03:50:29.411Z,92.90
2022-10-19T03:53:16.802Z,92.90
2022-10-19T03:56:06.564Z,93.00
2022-10-19T03:58:56.615Z,93.00
2022-10-19T04:01:47.324Z,92.70
2022-10-19T04:04:36.669Z,92.90
2022-10-19T04:07:24.300Z,92.80
2022-10-19T04:10:11.798Z,92.90
2022-10-19T04:12:59.486Z,92.70
2022-10-19T04:15:46.717Z,92.70
2022-10-19T04:18:34.055Z,92.70
2022-10-19T04:21:25.580Z,92.80
2022-10-19T04:24:15.695Z,92.90
2022-10-19T04:27:03.381Z,92.80
2022-10-19T04:29:50.894Z,92.40
2022-10-19T04:32:38.473Z,93.10
2022-10-19T04:35:25.762Z,92.90
2022-10-19T04:38:14.729Z,92.70
2022-10-19T04:41:03.945Z,92.70
2022-10-19T04:43:58.563Z,92.60
2022-10-19T04:46:45.857Z,92.50
2022-10-19T04:49:33.273Z,92.60
2022-10-19T04:52:20.541Z,92.60
2022-10-19T04:55:10.171Z,92.50
2022-10-19T04:57:57.872Z,92.50
2022-10-19T05:00:45.183Z,92.50
2022-10-19T05:03:32.460Z,92.70
2022-10-19T05:06:19.745Z,92.60
2022-10-19T05:09:07.753Z,92.30
2022-10-19T05:11:56.482Z,92.20
2022-10-19T05:14:44.181Z,92.20
2022-10-19T05:17:32.381Z,92.30
2022-10-19T05:20:20.297Z,92.40
2022-10-19T05:23:07.634Z,92.30
2022-10-19T05:26:02.277Z,92.20
2022-10-19T05:28:56.405Z,92.20
2022-10-19T05:31:43.926Z,92.50
2022-10-19T05:34:31.209Z,92.30
2022-10-19T05:37:18.925Z,92.50
2022-10-19T05:40:08.461Z,92.40
2022-10-19T05:42:56.098Z,92.50
2022-10-19T05:45:44.667Z,92.40
2022-10-19T05:48:33.786Z,92.60
2022-10-19T05:51:23.002Z,92.60
2022-10-19T05:54:11.265Z,92.40
2022-10-19T05:56:58.947Z,92.30
2022-10-19T05:59:46.196Z,92.30
2022-10-19T06:02:34.970Z,92.40
2022-10-19T06:05:03.963Z,92.50
2022-10-19T06:07:33.333Z,92.40
2022-10-19T06:10:02.733Z,92.50
2022-10-19T06:12:31.770Z,92.60
2022-10-19T06:15:00.761Z,92.60
2022-10-19T06:17:30.494Z,92.40
2022-10-19T06:20:00.925Z,92.60
2022-10-19T06:22:29.944Z,92.70
2022-10-19T06:25:00.877Z,92.50
2022-10-19T06:27:30.536Z,92.70
2022-10-19T06:29:59.587Z,92.40
2022-10-19T06:32:29.361Z,92.40
2022-10-19T06:34:58.441Z,92.30
2022-10-19T06:37:28.831Z,92.40
2022-10-19T06:39:57.994Z,92.40
2022-10-19T06:42:26.993Z,92.30
2022-10-19T06:44:56.123Z,92.30
2022-10-19T06:47:31.004Z,92.60
2022-10-19T06:50:00.127Z,92.70
2022-10-19T06:52:30.903Z,92.70
2022-10-19T06:55:00.088Z,92.90
2022-10-19T06:57:29.215Z,92.70
2022-10-19T06:59:58.235Z,92.80
2022-10-19T07:02:27.352Z,92.90
2022-10-19T07:04:56.369Z,92.90
2022-10-19T07:07:25.560Z,92.90
2022-10-19T07:09:56.130Z,92.90
2022-10-19T07:12:25.577Z,92.90
2022-10-19T07:14:55.657Z,92.80
2022-10-19T07:17:24.997Z,93.20
2022-10-19T07:19:55.110Z,93.30
2022-10-19T07:22:28.002Z,93.40
2022-10-19T07:24:58.804Z,94.00
2022-10-19T07:27:28.053Z,94.00
2022-10-19T07:29:57.196Z,94.30
2022-10-19T07:32:26.401Z,94.30
2022-10-19T07:34:55.578Z,94.60
2022-10-19T07:37:24.755Z,94.80
2022-10-19T07:39:54.006Z,94.80
2022-10-19T07:42:24.532Z,94.80
2022-10-19T07:44:53.750Z,94.90
2022-10-19T07:47:22.911Z,95.00
2022-10-19T07:49:52.018Z,94.90
2022-10-19T07:52:22.385Z,94.70
2022-10-19T07:54:52.679Z,94.50
2022-10-19T07:57:23.409Z,94.30
2022-10-19T07:59:52.624Z,94.80
2022-10-19T08:02:21.896Z,94.50
2022-10-19T08:05:01.063Z,94.50
2022-10-19T08:07:31.118Z,94.80
2022-10-19T08:10:00.295Z,95.10
2022-10-19T08:12:31.184Z,95.30
2022-10-19T08:15:00.697Z,95.00
2022-10-19T08:17:30.903Z,95.60
2022-10-19T08:20:00.351Z,95.50
2022-10-19T08:22:29.594Z,95.70
2022-10-19T08:24:58.850Z,95.90
2022-10-19T08:27:29.150Z,95.90
2022-10-19T08:30:00.289Z,95.80
2022-10-19T08:32:29.721Z,95.60
2022-10-19T08:34:59.074Z,94.90
2022-10-19T08:37:43.816Z,94.80
2022-10-19T08:40:21.034Z,94.60
2022-10-19T08:42:59.562Z,94.10
2022-10-19T08:48:28.398Z,94.30
2022-10-19T08:51:00.038Z,94.10
2022-10-19T08:53:39.041Z,93.60
2022-10-19T08:56:49.806Z,93.50
2022-10-19T08:59:27.219Z,93.00
2022-10-19T09:02:02.503Z,92.90
2022-10-19T09:04:36.882Z,92.50
2022-10-19T09:07:25.090Z,92.20
2022-10-19T09:09:59.461Z,92.00
2022-10-19T09:12:46.563Z,92.10
2022-10-19T09:15:20.754Z,91.60
2022-10-19T09:17:52.211Z,91.30
2022-10-19T09:20:24.772Z,90.90
2022-10-19T09:23:08.646Z,91.50
2022-10-19T09:25:42.008Z,92.10
2022-10-19T09:28:31.548Z,92.10
2022-10-19T09:31:07.277Z,92.50
2022-10-19T09:33:41.121Z,92.70
2022-10-19T09:36:22.299Z,93.20
2022-10-19T09:38:57.261Z,93.00
2022-10-19T09:41:27.471Z,92.80
2022-10-19T09:43:57.890Z,93.00
2022-10-19T09:46:51.980Z,92.60
2022-10-19T09:49:41.998Z,92.10
2022-10-19T09:52:30.834Z,91.90
2022-10-19T09:55:04.440Z,91.10
2022-10-19T09:57:35.284Z,91.70
2022-10-19T10:00:05.690Z,91.30
2022-10-19T10:02:36.298Z,91.60
2022-10-19T10:05:15.858Z,90.70
2022-10-19T10:07:46.105Z,90.80
2022-10-19T10:10:28.146Z,90.80
2022-10-19T10:13:01.228Z,90.80
2022-10-19T10:15:42.688Z,90.80
2022-10-19T10:18:16.926Z,90.80
2022-10-19T10:21:06.995Z,90.50
2022-10-19T10:23:37.790Z,90.70
2022-10-19T10:26:19.847Z,90.00
2022-10-19T10:28:51.559Z,90.40
2022-10-19T10:31:25.570Z,90.40
2022-10-19T10:34:10.823Z,90.60
2022-10-19T10:36:55.972Z,90.90
2022-10-19T10:39:27.255Z,90.60
2022-10-19T10:42:03.266Z,91.20
2022-10-19T10:44:36.652Z,90.60
2022-10-19T10:47:15.221Z,90.70
2022-10-19T10:49:48.887Z,90.50
2022-10-19T10:52:21.564Z,90.90
2022-10-19T10:55:07.904Z,91.00
2022-10-19T10:57:41.417Z,90.60
2022-10-19T11:00:17.130Z,91.00
2022-10-19T11:02:51.032Z,91.00
2022-10-19T11:05:26.696Z,91.00
2022-10-19T11:08:06.602Z,90.20
2022-10-19T11:10:41.298Z,90.00
2022-10-19T11:13:18.413Z,90.10
2022-10-19T11:15:55.190Z,89.60
2022-10-19T11:18:29.701Z,90.40
2022-10-19T11:21:07.989Z,90.00
2022-10-19T11:23:51.822Z,90.50
2022-10-19T11:26:40.349Z,90.20
2022-10-19T11:29:33.099Z,90.10
2022-10-19T11:32:02.759Z,89.70
2022-10-19T11:34:58.445Z,88.80
2022-10-19T11:37:33.892Z,90.40
2022-10-19T11:40:17.727Z,89.80
2022-10-19T11:43:02.713Z,90.10
2022-10-19T11:45:52.196Z,90.00
2022-10-19T11:49:04.058Z,89.70
2022-10-19T11:51:41.228Z,90.10
2022-10-19T11:54:28.266Z,89.80
2022-10-19T11:57:10.505Z,89.90
2022-10-19T12:00:13.562Z,90.00
2022-10-19T12:03:26.870Z,89.20
2022-10-19T12:06:09.293Z,89.00
2022-10-19T12:09:00.887Z,88.60
2022-10-19T12:11:47.556Z,88.50
2022-10-19T12:14:24.273Z,88.40
2022-10-19T12:16:59.276Z,87.30
2022-10-19T12:19:33.994Z,87.00
2022-10-19T12:22:06.169Z,87.40
2022-10-19T12:24:36.623Z,87.60
2022-10-19T12:27:08.121Z,88.10
2022-10-19T12:29:43.291Z,87.60
2022-10-19T12:32:17.618Z,87.30
2022-10-19T12:34:55.318Z,87.30
2022-10-19T12:37:34.396Z,88.10
2022-10-19T12:40:13.294Z,88.00
2022-10-19T12:42:53.694Z,86.80
2022-10-19T12:45:32.219Z,87.80
2022-10-19T12:48:23.142Z,87.60
2022-10-19T12:51:20.208Z,88.60
2022-10-19T12:53:51.301Z,87.20
2022-10-19T12:56:24.344Z,86.40
2022-10-19T12:59:01.327Z,87.50
2022-10-19T13:01:45.182Z,87.10
2022-10-19T13:04:18.011Z,87.10
2022-10-19T13:06:50.571Z,87.50
2022-10-19T13:09:26.254Z,87.30
2022-10-19T13:12:52.365Z,86.20
2022-10-19T13:19:21.563Z,85.10
2022-10-19T13:22:28.147Z,86.10
2022-10-19T13:25:28.289Z,85.90
2022-10-19T13:28:03.186Z,86.40
2022-10-19T13:31:07.044Z,85.90
2022-10-19T13:33:55.112Z,86.30
2022-10-19T13:36:27.059Z,86.70
2022-10-19T13:39:16.955Z,86.20
2022-10-19T13:41:53.794Z,86.80
2022-10-19T13:44:31.363Z,86.40
2022-10-19T13:47:24.766Z,86.00
2022-10-19T13:50:27.578Z,86.40
2022-10-19T13:53:37.682Z,85.30
2022-10-19T13:59:48.319Z,85.20
2022-10-19T14:02:56.450Z,85.80
2022-10-19T14:05:57.498Z,86.10
2022-10-19T14:09:07.120Z,85.10
2022-10-19T14:11:40.232Z,85.80
2022-10-19T14:14:22.509Z,86.00
2022-10-19T14:17:01.197Z,86.20
2022-10-19T14:19:43.578Z,86.50
2022-10-19T14:22:30.072Z,86.30
2022-10-19T14:25:08.135Z,85.90
2022-10-19T14:27:38.391Z,85.80
2022-10-19T14:30:22.911Z,85.80
2022-10-19T14:32:54.016Z,86.40
2022-10-19T14:35:30.424Z,87.00
2022-10-19T14:38:00.668Z,86.10
2022-10-19T14:40:34.689Z,85.40
2022-10-19T14:43:23.509Z,84.50
2022-10-19T14:46:13.039Z,86.00
2022-10-19T14:48:46.239Z,86.50
2022-10-19T14:51:31.610Z,85.70
2022-10-19T14:54:06.640Z,86.10
2022-10-19T14:56:44.507Z,84.40
2022-10-19T14:59:25.864Z,84.50
2022-10-19T15:01:59.094Z,84.20
2022-10-19T15:04:32.184Z,84.10
2022-10-19T15:07:14.857Z,84.00
2022-10-19T15:09:51.938Z,83.90
2022-10-19T15:12:28.621Z,84.70
2022-10-19T15:14:59.100Z,85.10
2022-10-19T15:17:31.768Z,83.80
2022-10-19T15:20:02.265Z,84.20
2022-10-19T15:22:41.279Z,84.30
2022-10-19T15:25:28.713Z,85.30
2022-10-19T15:28:00.159Z,85.60
2022-10-19T15:30:33.307Z,85.20
2022-10-19T15:33:16.490Z,85.80
2022-10-19T15:35:46.319Z,86.00
2022-10-19T15:38:22.301Z,85.30
2022-10-19T15:40:59.088Z,85.70
2022-10-19T15:43:46.118Z,85.60
2022-10-19T15:46:36.066Z,86.10
2022-10-19T15:49:45.800Z,86.10
2022-10-19T15:52:17.698Z,85.40
2022-10-19T15:54:49.531Z,86.00
2022-10-19T15:57:30.537Z,85.60
2022-10-19T16:00:03.866Z,86.20
2022-10-19T16:02:36.254Z,86.30
2022-10-19T16:07:40.329Z,86.20
2022-10-19T16:10:16.916Z,86.20
2022-10-19T16:12:46.485Z,86.20
2022-10-19T16:15:22.468Z,85.30
2022-10-19T16:17:54.341Z,86.10
2022-10-19T16:20:24.786Z,86.10
2022-10-19T16:22:54.189Z,86.20
2022-10-19T16:25:23.898Z,85.40
2022-10-19T16:27:53.542Z,87.30
2022-10-19T16:30:24.479Z,85.60
2022-10-19T16:32:53.768Z,85.40
2022-10-19T16:35:23.960Z,85.40
2022-10-19T16:37:53.243Z,85.30
2022-10-19T16:40:24.579Z,85.40
2022-10-19T16:42:56.743Z,85.60
2022-10-19T16:45:27.720Z,85.30
2022-10-19T16:47:57.147Z,85.60
2022-10-19T16:50:26.674Z,85.60
2022-10-19T16:53:07.225Z,85.90
2022-10-19T16:55:36.469Z,86.60
2022-10-19T16:58:05.755Z,85.30
2022-10-19T17:00:37.254Z,85.60
2022-10-19T17:03:07.414Z,86.00
2022-10-19T17:05:39.396Z,85.60
2022-10-19T17:08:09.266Z,86.50
2022-10-19T17:10:38.621Z,85.70
2022-10-19T17:13:07.958Z,85.70
2022-10-19T17:15:43.062Z,85.80
2022-10-19T17:18:13.093Z,86.10
2022-10-19T17:20:42.639Z,85.90
2022-10-19T17:23:11.949Z,86.40
2022-10-19T17:25:48.894Z,85.70
2022-10-19T17:28:18.170Z,87.10
2022-10-19T17:30:49.190Z,85.60
2022-10-19T17:33:18.527Z,85.40
2022-10-19T17:35:48.098Z,85.60
2022-10-19T17:38:17.959Z,85.50
2022-10-19T17:40:47.631Z,85.30
2022-10-19T17:43:16.875Z,86.10
2022-10-19T17:45:46.221Z,85.40
2022-10-19T17:48:17.038Z,85.70
2022-10-19T17:50:46.301Z,85.60
2022-10-19T17:53:15.648Z,86.00
2022-10-19T17:55:44.884Z,85.70
2022-10-19T17:58:14.304Z,85.70
2022-10-19T18:00:43.664Z,85.30
2022-10-19T18:03:13.073Z,85.30
2022-10-19T18:05:43.865Z,85.50
2022-10-19T18:08:13.197Z,85.30
2022-10-19T18:10:42.474Z,85.50
2022-10-19T18:13:11.758Z,85.60
2022-10-19T18:15:41.041Z,85.30
2022-10-19T18:18:10.317Z,85.40
2022-10-19T18:20:40.779Z,85.50
2022-10-19T18:23:11.599Z,85.90
2022-10-19T18:25:53.593Z,85.50
2022-10-19T18:28:23.687Z,86.90
2022-10-19T18:30:53.162Z,85.50
2022-10-19T18:33:23.460Z,85.60
2022-10-19T18:35:52.828Z,85.60
2022-10-19T18:38:23.529Z,85.80
2022-10-19T18:40:52.881Z,86.30
2022-10-19T18:43:22.214Z,86.00
2022-10-19T18:45:56.525Z,85.80
2022-10-19T18:48:27.104Z,87.10
2022-10-19T18:50:56.686Z,86.40
2022-10-19T18:53:27.504Z,85.50
2022-10-19T18:56:00.458Z,84.80
2022-10-19T18:58:31.012Z,85.30
2022-10-19T19:01:08.964Z,85.20
2022-10-19T19:03:40.256Z,86.00
2022-10-19T19:06:14.027Z,86.40
2022-10-19T19:08:45.236Z,86.80
2022-10-19T19:11:17.173Z,85.60
2022-10-19T19:13:50.681Z,86.70
2022-10-19T19:16:20.649Z,87.10
2022-10-19T19:18:50.194Z,85.60
2022-10-19T19:21:21.914Z,85.60
2022-10-19T19:23:54.268Z,86.60
2022-10-19T19:26:26.381Z,86.80
2022-10-19T19:28:57.364Z,87.00
2022-10-19T19:31:27.072Z,86.40
2022-10-19T19:33:56.438Z,85.90
2022-10-19T19:36:25.806Z,85.90
2022-10-19T19:38:57.291Z,85.60
2022-10-19T19:41:27.730Z,87.00
2022-10-19T19:43:59.083Z,85.90
2022-10-19T19:46:28.550Z,85.60
2022-10-19T19:49:02.482Z,85.40
2022-10-19T19:51:33.571Z,85.90
2022-10-19T19:54:04.750Z,86.00
2022-10-19T19:56:34.333Z,86.10
2022-10-19T19:59:04.575Z,85.40
2022-10-19T20:01:34.433Z,85.40
2022-10-19T20:04:22.148Z,86.40
2022-10-19T20:07:09.713Z,84.90
2022-10-19T20:09:58.956Z,85.50
2022-10-19T20:12:47.268Z,85.80
2022-10-19T20:15:37.081Z,86.60
2022-10-19T20:18:24.838Z,85.90
2022-10-19T20:21:12.710Z,85.40
2022-10-19T20:24:00.804Z,86.40
2022-10-19T20:26:49.829Z,86.50
2022-10-19T20:29:37.923Z,85.10
2022-10-19T20:32:25.959Z,85.50
2022-10-19T20:35:13.784Z,85.40
2022-10-19T20:41:08.018Z,87.00
2022-10-19T20:43:57.883Z,88.60
2022-10-19T20:46:45.248Z,89.00
2022-10-19T20:49:32.582Z,88.60
2022-10-19T20:52:19.766Z,88.60
2022-10-19T20:55:08.394Z,88.30
2022-10-19T20:57:55.876Z,88.10
2022-10-19T21:00:44.844Z,88.10
2022-10-19T21:03:32.111Z,87.80
2022-10-19T21:06:20.486Z,88.20
2022-10-19T21:09:08.692Z,87.60
2022-10-19T21:11:56.487Z,87.40
2022-10-19T21:14:44.165Z,87.80
2022-10-19T21:17:33.109Z,87.30
2022-10-19T21:20:20.667Z,87.80
2022-10-19T21:23:07.977Z,87.50
2022-10-19T21:25:55.701Z,87.50
2022-10-19T21:28:48.362Z,87.50
2022-10-19T21:31:35.663Z,87.60
2022-10-19T21:34:27.091Z,87.00
2022-10-19T21:37:14.312Z,87.80
2022-10-19T21:40:01.820Z,87.20
2022-10-19T21:42:49.192Z,86.20
2022-10-19T21:45:39.206Z,87.00
2022-10-19T21:48:26.783Z,87.40
2022-10-19T21:51:27.437Z,87.40
2022-10-19T21:54:18.306Z,87.90
2022-10-19T21:57:05.677Z,88.20
2022-10-19T21:59:52.943Z,87.80
2022-10-19T22:02:40.264Z,87.60
2022-10-19T22:05:27.664Z,87.60
2022-10-19T22:08:16.496Z,87.50
2022-10-19T22:11:07.319Z,88.00
2022-10-19T22:13:56.801Z,87.90
2022-10-19T22:16:44.575Z,88.00
2022-10-19T22:19:31.885Z,87.60
2022-10-19T22:22:19.211Z,87.50
2022-10-19T22:25:08.812Z,87.50
2022-10-19T22:27:56.378Z,87.50
2022-10-19T22:30:45.182Z,87.20
2022-10-19T22:33:32.861Z,87.30
2022-10-19T22:36:20.688Z,87.60
2022-10-19T22:39:09.183Z,87.40
2022-10-19T22:41:57.931Z,87.10
2022-10-19T22:44:45.578Z,87.10
2022-10-19T22:47:32.740Z,87.60
2022-10-19T22:50:20.168Z,86.70
2022-10-19T22:53:07.829Z,87.00
2022-10-19T22:55:55.028Z,87.10
2022-10-19T22:58:43.629Z,87.10
2022-10-19T23:01:31.438Z,86.80
2022-10-19T23:04:19.000Z,86.80
2022-10-19T23:07:06.258Z,86.90
2022-10-19T23:09:53.515Z,86.60
2022-10-19T23:12:41.029Z,86.90
2022-10-19T23:15:29.896Z,86.80
2022-10-19T23:18:17.468Z,86.60
2022-10-19T23:21:07.706Z,87.00
2022-10-19T23:23:55.318Z,87.00
2022-10-19T23:26:42.583Z,86.90
2022-10-19T23:29:29.846Z,87.30
2022-10-19T23:32:18.434Z,87.20
2022-10-19T23:35:07.436Z,87.20
2022-10-19T23:37:54.973Z,87.40
2022-10-19T23:40:44.125Z,87.30
2022-10-19T23:43:31.759Z,86.60
2022-10-19T23:46:19.653Z,86.60
2022-10-19T23:49:08.760Z,87.10
2022-10-19T23:51:56.410Z,86.90
2022-10-19T23:54:43.536Z,86.60
2022-10-19T23:57:31.305Z,86.60
